Covert, Michigan
Current Conditions -  °F | °C
As of 7:34 AM on Monday 22 Dec 2014 (Local Time) from KLWA Reporting Station
Haze Haze  
Wind Chill: -5°   Ceiling: Unl
Heat Index: -2°   Visibility: 5mi
Dew Point: -4°   Wind: 6mph
Humidity: 83%   Direction: 120°ESE
Pressure: 30.01"   Gusts: NA
Location:  42.29°N, 86.26°W
Report Text: KLWA 221234Z AUTO 12005KT 5SM HZ CLR M02/M04 A3001 RMK AO2 T10171042
Loading
Personal Weather Stations






























Interactive Weather Map New forecast layout! Learn more

10-Day Weather Forecast

Advertisements
Track Severe Weather on mobile